Time;durP1;ratioP1;P1;durP2;ratioP2;P2;SDS_P1;SDS_P2;PMS_P1;PMS_P2;Temp;Humidity;BMP_temperature;BMP_pressure;BME280_temperature;BME280_humidity;BME280_pressure;Samples;Min_cycle;Max_cycle;Signal;HPM_P1;HPM_P2
2021/11/10 00:00:51;;;;;;;;;;;;;;;-139.48;100.00;61774.03;4957428;29;20058;-70
2021/11/10 00:03:35;;;;;;;17.95;9.15;;;;;;;-139.48;100.00;61774.03;4957255;29;19921;-70
2021/11/10 00:06:19;;;;;;;;;;;;;;;-139.48;100.00;61774.03;4957042;28;20136;-69
2021/11/10 00:09:04;;;;;;;15.57;9.20;;;;;;;-139.48;100.00;61774.03;4956834;29;19921;-70
2021/11/10 00:11:48;;;;;;;13.40;8.55;;;;;;;-139.48;100.00;61774.03;4956531;29;20557;-70
2021/11/10 00:14:32;;;;;;;12.63;8.32;;;;;;;-139.48;100.00;61774.03;4956895;29;20057;-69
2021/11/10 00:17:16;;;;;;;13.98;8.00;;;;;;;-139.48;100.00;61774.03;4996680;23;20340;-69
2021/11/10 00:20:00;;;;;;;14.82;8.23;;;;;;;-139.48;100.00;61774.03;4975999;28;20053;-68
2021/11/10 00:22:44;;;;;;;12.38;7.28;;;;;;;-139.48;100.00;61774.03;4976050;28;20100;-69
2021/11/10 00:25:28;;;;;;;14.00;7.80;;;;;;;-139.48;100.00;61774.03;4976629;28;20049;-69
2021/11/10 00:28:12;;;;;;;;;;;;;;;-139.48;100.00;61774.03;4976149;28;20050;-67
2021/11/10 00:30:57;;;;;;;12.23;7.47;;;;;;;-139.48;100.00;61774.03;4976514;28;19977;-68
2021/11/10 00:33:41;;;;;;;15.25;7.50;;;;;;;-139.48;100.00;61774.03;4976944;28;20057;-67
2021/11/10 00:36:25;;;;;;;11.25;6.95;;;;;;;-139.48;100.00;61774.03;4962041;28;20085;-69
2021/11/10 00:39:09;;;;;;;14.35;7.25;;;;;;;-139.48;100.00;61774.03;4976988;28;20405;-68
2021/11/10 00:41:53;;;;;;;13.27;7.82;;;;;;;-139.48;100.00;61774.03;4976537;28;20050;-69
2021/11/10 00:44:37;;;;;;;13.32;7.90;;;;;;;-139.48;100.00;61774.03;4976583;28;20061;-69
2021/11/10 00:47:21;;;;;;;16.40;7.47;;;;;;;-139.48;100.00;61774.03;4975235;28;20420;-69
2021/11/10 00:50:06;;;;;;;15.60;7.38;;;;;;;-139.48;100.00;61774.03;4975480;28;20049;-69
2021/11/10 00:52:50;;;;;;;12.60;7.13;;;;;;;-139.48;100.00;61774.03;4975428;28;20129;-69
2021/11/10 00:55:35;;;;;;;11.27;6.78;;;;;;;-139.48;100.00;61774.03;4976405;28;20050;-69
2021/11/10 00:58:18;;;;;;;14.45;6.85;;;;;;;-139.48;100.00;61774.03;4975002;28;20078;-67
2021/11/10 01:01:02;;;;;;;13.10;6.88;;;;;;;-139.48;100.00;61774.03;4975110;28;20472;-69
2021/11/10 01:03:46;;;;;;;12.38;7.20;;;;;;;-139.48;100.00;61774.03;4961886;28;20220;-68
2021/11/10 01:06:33;;;;;;;9.77;6.22;;;;;;;-139.48;100.00;61774.03;4976139;28;20058;-69
2021/11/10 01:09:18;;;;;;;15.32;6.07;;;;;;;-139.48;100.00;61774.03;4974850;28;20074;-69
2021/11/10 01:12:02;;;;;;;12.38;7.00;;;;;;;-139.48;100.00;61774.03;4961419;28;20077;-68
2021/11/10 01:14:46;;;;;;;8.52;6.03;;;;;;;-139.48;100.00;61774.03;4975024;28;20049;-67
2021/11/10 01:17:30;;;;;;;13.52;6.30;;;;;;;-139.48;100.00;61774.03;4974733;28;20093;-69
2021/11/10 01:20:14;;;;;;;9.38;5.70;;;;;;;-139.48;100.00;61774.03;4974956;28;20046;-67
2021/11/10 01:22:58;;;;;;;11.77;5.97;;;;;;;-139.48;100.00;61774.03;4975871;28;20404;-67
2021/11/10 01:25:42;;;;;;;8.02;5.63;;;;;;;-139.48;100.00;61774.03;4975593;28;20538;-67
2021/11/10 01:28:26;;;;;;;10.95;5.88;;;;;;;-139.48;100.00;61774.03;4974589;28;20048;-67
2021/11/10 01:31:10;;;;;;;;;;;;;;;-139.48;100.00;61774.03;4975382;28;20097;-67
2021/11/10 01:33:54;;;;;;;11.60;5.53;;;;;;;-139.48;100.00;61774.03;4974536;28;19921;-67
2021/11/10 01:36:39;;;;;;;10.63;7.28;;;;;;;-139.48;100.00;61774.03;4975367;28;20268;-69
2021/11/10 01:39:23;;;;;;;11.52;5.82;;;;;;;-139.48;100.00;61774.03;4974818;28;20066;-69
2021/11/10 01:42:07;;;;;;;8.98;5.65;;;;;;;-139.48;100.00;61774.03;4974496;28;20114;-66
2021/11/10 01:44:51;;;;;;;12.15;5.65;;;;;;;-139.48;100.00;61774.03;4974490;28;20045;-69
2021/11/10 01:47:35;;;;;;;10.25;5.57;;;;;;;-139.48;100.00;61774.03;4960471;28;20185;-69
2021/11/10 01:50:19;;;;;;;7.95;4.95;;;;;;;-139.48;100.00;61774.03;4974298;28;20065;-69
2021/11/10 01:53:03;;;;;;;;;;;;;;;-139.48;100.00;61774.03;4974733;28;20046;-67
2021/11/10 01:55:47;;;;;;;10.35;6.10;;;;;;;-139.48;100.00;61774.03;4960441;28;19982;-67
2021/11/10 01:58:31;;;;;;;12.45;6.47;;;;;;;-139.48;100.00;61774.03;4960473;28;20134;-67
2021/11/10 02:01:15;;;;;;;11.38;6.00;;;;;;;-139.48;100.00;61774.03;4960340;28;20097;-67
2021/11/10 02:03:59;;;;;;;;;;;;;;;-139.48;100.00;61774.03;4975588;28;20463;-66
2021/11/10 02:06:43;;;;;;;12.25;6.70;;;;;;;-139.48;100.00;61774.03;4974382;28;19964;-67
2021/11/10 02:09:27;;;;;;;;;;;;;;;-139.48;100.00;61774.03;4974503;28;20053;-66
2021/11/10 02:12:11;;;;;;;14.47;6.17;;;;;;;-139.48;100.00;61774.03;4974001;28;19924;-69
2021/11/10 02:14:55;;;;;;;13.20;7.22;;;;;;;-139.48;100.00;61774.03;4974009;28;20046;-68
2021/11/10 02:17:39;;;;;;;10.70;6.82;;;;;;;-139.48;100.00;61774.03;4973586;28;20105;-69
2021/11/10 02:20:24;;;;;;;;;;;;;;;-139.48;100.00;61774.03;4975378;28;20050;-67
2021/11/10 02:23:08;;;;;;;10.45;6.00;;;;;;;-139.48;100.00;61774.03;4973661;28;20318;-67
2021/11/10 02:25:58;;;;;;;9.73;5.47;;;;;;;-139.48;100.00;61774.03;4973943;28;20131;-68
2021/11/10 02:28:42;;;;;;;8.73;5.70;;;;;;;-139.48;100.00;61774.03;4974454;28;20098;-68
2021/11/10 02:31:28;;;;;;;12.45;6.80;;;;;;;-139.48;100.00;61774.03;4973742;28;20057;-69
2021/11/10 02:34:12;;;;;;;19.52;7.80;;;;;;;-139.48;100.00;61774.03;4960152;28;20057;-67
2021/11/10 02:36:56;;;;;;;15.75;7.47;;;;;;;-139.48;100.00;61774.03;4974661;28;20073;-66
2021/11/10 02:39:40;;;;;;;12.45;7.45;;;;;;;-139.48;100.00;61774.03;4974673;28;20050;-66
2021/11/10 02:42:24;;;;;;;14.65;7.50;;;;;;;-139.48;100.00;61774.03;4974762;28;20101;-69
2021/11/10 02:45:08;;;;;;;12.55;8.50;;;;;;;-139.48;100.00;61774.03;4973712;28;20511;-67
2021/11/10 02:47:52;;;;;;;15.18;7.40;;;;;;;-139.48;100.00;61774.03;4973887;28;20069;-67
2021/11/10 02:50:36;;;;;;;;;;;;;;;-139.48;100.00;61774.03;4973903;28;20045;-67
2021/11/10 02:53:20;;;;;;;13.57;7.35;;;;;;;-139.48;100.00;61774.03;4973612;28;20339;-69
2021/11/10 02:56:04;;;;;;;11.52;6.88;;;;;;;-139.48;100.00;61774.03;4974543;28;20081;-67
2021/11/10 02:58:48;;;;;;;12.52;7.55;;;;;;;-139.48;100.00;61774.03;4974530;28;20420;-67
2021/11/10 03:01:32;;;;;;;14.30;7.47;;;;;;;-139.48;100.00;61774.03;4976640;28;20134;-64
2021/11/10 03:04:25;;;;;;;11.90;7.25;;;;;;;-139.48;100.00;61774.03;4978180;28;20070;-67
2021/11/10 03:07:09;;;;;;;14.18;7.32;;;;;;;-139.48;100.00;61774.03;4978212;28;20082;-70
2021/11/10 03:09:53;;;;;;;11.90;7.50;;;;;;;-139.48;100.00;61774.03;4977615;28;20133;-67
2021/11/10 03:12:37;;;;;;;15.75;7.60;;;;;;;-139.48;100.00;61774.03;4977164;28;20050;-67
2021/11/10 03:15:21;;;;;;;15.35;7.40;;;;;;;-139.48;100.00;61774.03;4978095;28;20089;-69
2021/11/10 03:18:05;;;;;;;12.85;6.63;;;;;;;-139.48;100.00;61774.03;4963121;28;20127;-69
2021/11/10 03:20:50;;;;;;;13.88;7.95;;;;;;;-139.48;100.00;61774.03;4977181;28;20070;-67
2021/11/10 03:23:33;;;;;;;14.20;7.53;;;;;;;-139.48;100.00;61774.03;4976905;28;20129;-67
2021/11/10 03:26:20;;;;;;;15.15;7.30;;;;;;;-139.48;100.00;61774.03;4977754;28;20073;-68
2021/11/10 03:29:04;;;;;;;12.77;7.53;;;;;;;-139.48;100.00;61774.03;4977913;28;20185;-67
2021/11/10 03:31:48;;;;;;;10.70;7.30;;;;;;;-139.48;100.00;61774.03;4977708;28;20049;-68
2021/11/10 03:34:33;;;;;;;12.88;8.02;;;;;;;-139.48;100.00;61774.03;4976903;28;20138;-69
2021/11/10 03:37:17;;;;;;;12.88;7.95;;;;;;;-139.48;100.00;61774.03;4976532;28;20109;-67
2021/11/10 03:40:04;;;;;;;16.13;9.15;;;;;;;-139.48;100.00;61774.03;4976449;28;20583;-67
2021/11/10 03:42:47;;;;;;;14.68;7.40;;;;;;;-139.48;100.00;61774.03;4977475;28;20506;-68
2021/11/10 03:45:31;;;;;;;17.88;8.82;;;;;;;-139.48;100.00;61774.03;4977684;28;20054;-68
2021/11/10 03:48:16;;;;;;;15.32;9.15;;;;;;;-139.48;100.00;61774.03;4976328;28;20158;-68
2021/11/10 03:51:00;;;;;;;14.20;8.77;;;;;;;-139.48;100.00;61774.03;4976567;28;20053;-69
2021/11/10 03:53:45;;;;;;;16.67;8.90;;;;;;;-139.48;100.00;61774.03;4977521;28;20602;-69
2021/11/10 03:56:29;;;;;;;14.85;8.25;;;;;;;-139.48;100.00;61774.03;4976522;28;20085;-66
2021/11/10 03:59:13;;;;;;;15.63;9.85;;;;;;;-139.48;100.00;61774.03;4976349;28;20053;-67
2021/11/10 04:01:58;;;;;;;16.15;8.10;;;;;;;-139.48;100.00;61774.03;4976384;28;20049;-65
2021/11/10 04:04:42;;;;;;;13.80;7.60;;;;;;;-139.48;100.00;61774.03;4976097;28;20140;-69
2021/11/10 04:07:27;;;;;;;;;;;;;;;-139.48;100.00;61774.03;4976377;28;20045;-66
2021/11/10 04:10:11;;;;;;;14.75;7.90;;;;;;;-139.48;100.00;61774.03;4976014;28;20346;-69
2021/11/10 04:12:56;;;;;;;11.02;7.43;;;;;;;-139.48;100.00;61774.03;4975997;28;20074;-67
2021/11/10 04:15:39;;;;;;;;;;;;;;;-139.48;100.00;61774.03;4976362;28;20126;-66
2021/11/10 04:18:23;;;;;;;11.95;6.97;;;;;;;-139.48;100.00;61774.03;4976652;28;19921;-69
2021/11/10 04:21:07;;;;;;;12.48;7.40;;;;;;;-139.48;100.00;61774.03;4976333;28;20483;-69
2021/11/10 04:23:53;;;;;;;12.88;7.90;;;;;;;-139.48;100.00;61774.03;4975960;28;20101;-66
2021/11/10 04:26:39;;;;;;;14.00;7.57;;;;;;;-139.48;100.00;61774.03;4975947;28;20563;-67
2021/11/10 04:29:23;;;;;;;12.10;6.97;;;;;;;-139.48;100.00;61774.03;4975920;28;20129;-68
2021/11/10 04:32:08;;;;;;;;;;;;;;;-139.48;100.00;61774.03;4977186;28;20057;-67
2021/11/10 04:34:51;;;;;;;15.30;8.23;;;;;;;-139.48;100.00;61774.03;4961893;28;19962;-67
2021/11/10 04:37:35;;;;;;;;;;;;;;;-139.48;100.00;61774.03;4962353;28;20120;-66
2021/11/10 04:40:19;;;;;;;11.48;7.70;;;;;;;-139.48;100.00;61774.03;4961747;28;20347;-67
2021/11/10 04:43:04;;;;;;;11.65;7.90;;;;;;;-139.48;100.00;61774.03;4976445;28;20054;-68
2021/11/10 04:45:51;;;;;;;12.70;7.88;;;;;;;-139.48;100.00;61774.03;4976298;28;20543;-66
2021/11/10 04:48:38;;;;;;;11.65;7.50;;;;;;;-139.48;100.00;61774.03;4975455;28;20118;-66
2021/11/10 04:51:25;;;;;;;11.35;7.18;;;;;;;-139.48;100.00;61774.03;4962274;28;20146;-66
2021/11/10 04:54:13;;;;;;;15.93;8.30;;;;;;;-139.48;100.00;61774.03;4975499;28;20459;-69
2021/11/10 04:56:59;;;;;;;16.02;8.18;;;;;;;-139.48;100.00;61774.03;4975349;28;20423;-67
2021/11/10 04:59:43;;;;;;;14.63;8.70;;;;;;;-139.48;100.00;61774.03;4975519;28;20130;-69
2021/11/10 05:02:27;;;;;;;12.88;8.13;;;;;;;-139.48;100.00;61774.03;4976076;28;20073;-67
2021/11/10 05:05:14;;;;;;;;;;;;;;;-139.48;100.00;61774.03;4975411;28;20050;-66
2021/11/10 05:07:58;;;;;;;15.60;8.02;;;;;;;-139.48;100.00;61774.03;4976144;28;19983;-68
2021/11/10 05:10:42;;;;;;;11.55;7.72;;;;;;;-139.48;100.00;61774.03;4975094;28;20546;-67
2021/11/10 05:13:26;;;;;;;12.85;7.93;;;;;;;-139.48;100.00;61774.03;4975115;28;20090;-66
2021/11/10 05:16:10;;;;;;;12.55;8.20;;;;;;;-139.48;100.00;61774.03;4975065;28;20140;-69
2021/11/10 05:18:54;;;;;;;14.18;8.50;;;;;;;-139.48;100.00;61774.03;4974576;28;20126;-69
2021/11/10 05:21:39;;;;;;;;;;;;;;;-139.48;100.00;61774.03;4976576;28;20453;-66
2021/11/10 05:24:25;;;;;;;14.15;8.35;;;;;;;-139.48;100.00;61774.03;4960775;28;19964;-68
2021/11/10 05:27:10;;;;;;;14.63;8.27;;;;;;;-139.48;100.00;61774.03;4974482;28;20419;-68
2021/11/10 05:29:54;;;;;;;11.52;7.70;;;;;;;-139.48;100.00;61774.03;4975777;28;20049;-68
2021/11/10 05:32:39;;;;;;;12.07;7.90;;;;;;;-139.48;100.00;61774.03;4974621;28;20105;-68
2021/11/10 05:35:23;;;;;;;12.38;8.00;;;;;;;-139.48;100.00;61774.03;4975443;28;20523;-68
2021/11/10 05:38:07;;;;;;;19.05;8.85;;;;;;;-139.48;100.00;61774.03;4975257;28;20053;-68
2021/11/10 05:40:51;;;;;;;16.55;8.38;;;;;;;-139.48;100.00;61774.03;4974573;28;20523;-67
2021/11/10 05:43:36;;;;;;;13.27;8.93;;;;;;;-139.48;100.00;61774.03;4975506;28;20061;-68
2021/11/10 05:46:19;;;;;;;18.20;9.40;;;;;;;-139.48;100.00;61774.03;4974454;28;20081;-68
2021/11/10 05:49:03;;;;;;;;;;;;;;;-139.48;100.00;61774.03;4975764;28;20057;-66
2021/11/10 05:51:47;;;;;;;15.18;8.38;;;;;;;-139.48;100.00;61774.03;4974296;28;20441;-68
2021/11/10 05:54:31;;;;;;;;;;;;;;;-139.48;100.00;61774.03;4974978;28;20119;-68
2021/11/10 05:57:17;;;;;;;12.75;7.38;;;;;;;-139.48;100.00;61774.03;4960343;28;19979;-68
2021/11/10 06:00:02;;;;;;;15.00;8.60;;;;;;;-139.48;100.00;61774.03;4974259;28;20057;-68
2021/11/10 06:02:46;;;;;;;15.70;9.10;;;;;;;-139.48;100.00;61774.03;4974000;28;20062;-68
2021/11/10 06:05:31;;;;;;;13.05;8.43;;;;;;;-139.48;100.00;61774.03;4974478;28;20049;-67
2021/11/10 06:08:14;;;;;;;;;;;;;;;-139.48;100.00;61774.03;4974320;28;20101;-68
2021/11/10 06:10:58;;;;;;;18.13;8.57;;;;;;;-139.48;100.00;61774.03;4974781;28;19921;-68
2021/11/10 06:13:42;;;;;;;15.15;8.43;;;;;;;-139.48;100.00;61774.03;4974773;28;20050;-67
2021/11/10 06:16:27;;;;;;;15.70;8.00;;;;;;;-139.48;100.00;61774.03;4974300;28;20053;-69
2021/11/10 06:19:11;;;;;;;21.70;9.90;;;;;;;-139.48;100.00;61774.03;4996632;23;20082;-69
2021/11/10 06:21:55;;;;;;;;;;;;;;;-139.48;100.00;61774.03;4975347;28;20046;-69
2021/11/10 06:24:39;;;;;;;17.65;9.43;;;;;;;-139.48;100.00;61774.03;4973645;28;20449;-69
2021/11/10 06:27:23;;;;;;;15.73;8.60;;;;;;;-139.48;100.00;61774.03;4960170;28;20077;-69
2021/11/10 06:30:08;;;;;;;18.17;9.60;;;;;;;-139.48;100.00;61774.03;4960579;28;20058;-69
2021/11/10 06:32:52;;;;;;;16.33;9.65;;;;;;;-139.48;100.00;61774.03;4973741;28;20089;-69
2021/11/10 06:35:36;;;;;;;;;;;;;;;-139.48;100.00;61774.03;4960120;28;20046;-69
2021/11/10 06:38:20;;;;;;;14.37;8.30;;;;;;;-139.48;100.00;61774.03;4959738;28;19939;-69
2021/11/10 06:41:04;;;;;;;;;;;;;;;-139.48;100.00;61774.03;4974082;28;20049;-69
2021/11/10 06:43:48;;;;;;;11.90;8.40;;;;;;;-139.48;100.00;61774.03;4973728;28;20061;-69
2021/11/10 06:46:33;;;;;;;14.48;8.52;;;;;;;-139.48;100.00;61774.03;4974789;28;20058;-69
2021/11/10 06:49:17;;;;;;;16.00;9.25;;;;;;;-139.48;100.00;61774.03;4959784;28;20096;-69
2021/11/10 06:52:02;;;;;;;18.73;9.70;;;;;;;-139.48;100.00;61774.03;4960043;28;20049;-69
2021/11/10 06:54:46;;;;;;;14.80;9.75;;;;;;;-139.48;100.00;61774.03;4973519;28;20045;-69
2021/11/10 06:57:31;;;;;;;23.00;10.48;;;;;;;-139.48;100.00;61774.03;4973549;28;20081;-69
2021/11/10 07:00:16;;;;;;;17.38;10.43;;;;;;;-139.48;100.00;61774.03;4973528;28;20050;-69
2021/11/10 07:02:59;;;;;;;17.75;9.77;;;;;;;-139.48;100.00;61774.03;4973119;28;20101;-69
2021/11/10 07:05:43;;;;;;;15.20;9.88;;;;;;;-139.48;100.00;61774.03;4973482;28;20058;-69
2021/11/10 07:08:27;;;;;;;16.75;9.57;;;;;;;-139.48;100.00;61774.03;4974333;28;20053;-69
2021/11/10 07:11:11;;;;;;;20.30;10.18;;;;;;;-139.48;100.00;61774.03;4973426;28;20050;-69
2021/11/10 07:13:55;;;;;;;14.98;10.10;;;;;;;-139.48;100.00;61774.03;4973137;28;20054;-69
2021/11/10 07:16:39;;;;;;;17.50;10.25;;;;;;;-139.48;100.00;61774.03;4959764;28;20069;-69
2021/11/10 07:19:23;;;;;;;;;;;;;;;-139.48;100.00;61774.03;4973457;28;20054;-70
2021/11/10 07:22:06;;;;;;;22.83;10.27;;;;;;;-139.48;100.00;61774.03;4973974;28;19969;-69
2021/11/10 07:24:50;;;;;;;16.23;9.95;;;;;;;-139.48;100.00;61774.03;4973309;28;20473;-69
2021/11/10 07:27:34;;;;;;;16.73;9.05;;;;;;;-139.48;100.00;61774.03;4959895;28;20460;-69
2021/11/10 07:30:19;;;;;;;14.20;9.98;;;;;;;-139.48;100.00;61774.03;4973053;28;20170;-69
2021/11/10 07:33:02;;;;;;;17.10;10.60;;;;;;;-139.48;100.00;61774.03;4973466;28;20177;-69
2021/11/10 07:35:47;;;;;;;20.95;13.23;;;;;;;-139.48;100.00;61774.03;4973190;28;20109;-69
2021/11/10 07:38:31;;;;;;;20.73;10.88;;;;;;;-139.48;100.00;61774.03;4972972;28;20424;-69
2021/11/10 07:41:17;;;;;;;21.25;10.27;;;;;;;-139.48;100.00;61774.03;4974051;28;20145;-69
2021/11/10 07:44:02;;;;;;;16.38;9.70;;;;;;;-139.48;100.00;61774.03;4972878;28;20097;-70
2021/11/10 07:47:21;;;;;;;18.10;9.63;;;;;;;-139.48;100.00;61774.03;4974615;28;20510;-69
2021/11/10 07:49:56;;;;;;;19.25;9.88;;;;;;;-139.48;100.00;61774.03;4976815;28;20041;-70
2021/11/10 07:52:40;;;;;;;;;;;;;;;-139.48;100.00;61774.03;4963303;28;20404;-69
2021/11/10 07:55:24;;;;;;;25.13;12.77;;;;;;;-139.48;100.00;61774.03;4976881;28;19920;-70
2021/11/10 07:58:08;;;;;;;22.40;11.48;;;;;;;-139.48;100.00;61774.03;4976437;28;20057;-69
2021/11/10 08:00:52;;;;;;;24.20;10.93;;;;;;;-139.48;100.00;61774.03;4962775;28;20097;-70
2021/11/10 08:03:36;;;;;;;18.00;11.77;;;;;;;-139.48;100.00;61774.03;4977414;28;20103;-69
2021/11/10 08:06:20;;;;;;;21.80;12.82;;;;;;;-139.48;100.00;61774.03;4976518;28;20050;-69
2021/11/10 08:09:04;;;;;;;20.33;12.43;;;;;;;-139.48;100.00;61774.03;4975981;28;20093;-69
2021/11/10 08:11:48;;;;;;;15.73;9.68;;;;;;;-139.48;100.00;61774.03;4976066;28;20049;-69
2021/11/10 08:14:32;;;;;;;13.57;8.80;;;;;;;-139.48;100.00;61774.03;4962206;28;20058;-69
2021/11/10 08:17:16;;;;;;;11.90;8.30;;;;;;;-139.48;100.00;61774.03;4976322;28;20050;-69
2021/11/10 08:20:00;;;;;;;14.60;8.65;;;;;;;-139.48;100.00;61774.03;4962001;28;20078;-70
2021/11/10 08:22:46;;;;;;;13.18;7.78;;;;;;;-139.48;100.00;61774.03;4961994;28;20050;-70
2021/11/10 08:25:30;;;;;;;12.75;7.32;;;;;;;-139.48;100.00;61774.03;4975982;28;20108;-69
2021/11/10 08:28:14;;;;;;;11.10;8.15;;;;;;;-139.48;100.00;61774.03;4976849;28;20460;-69
2021/11/10 08:30:58;;;;;;;11.63;7.63;;;;;;;-139.48;100.00;61774.03;4975651;28;20431;-69
2021/11/10 08:33:42;;;;;;;10.38;7.60;;;;;;;-139.48;100.00;61774.03;4975836;28;20117;-69
2021/11/10 08:36:26;;;;;;;13.05;7.18;;;;;;;-139.48;100.00;61774.03;4975777;28;20049;-69
2021/11/10 08:39:10;;;;;;;8.00;6.60;;;;;;;-139.48;100.00;61774.03;4976859;28;20085;-70
2021/11/10 08:41:54;;;;;;;9.52;6.72;;;;;;;-139.48;100.00;61774.03;4975320;28;20117;-69
2021/11/10 08:44:44;;;;;;;11.32;7.28;;;;;;;-139.48;100.00;61774.03;4961946;28;20065;-70
2021/11/10 08:47:28;;;;;;;9.65;6.70;;;;;;;-139.48;100.00;61774.03;4975374;28;20077;-70
2021/11/10 08:50:14;;;;;;;12.85;7.43;;;;;;;-139.48;100.00;61774.03;4975513;28;20104;-69
2021/11/10 08:52:58;;;;;;;10.63;7.35;;;;;;;-139.48;100.00;61774.03;4975500;28;20046;-70
2021/11/10 08:55:42;;;;;;;10.60;8.02;;;;;;;-139.48;100.00;61774.03;4961499;28;20049;-70
2021/11/10 08:58:27;;;;;;;13.20;8.23;;;;;;;-139.48;100.00;61774.03;4973869;28;20045;-70
2021/11/10 09:01:14;;;;;;;10.77;7.47;;;;;;;-139.48;100.00;61774.03;4974954;28;20073;-68
2021/11/10 09:03:59;;;;;;;11.50;7.25;;;;;;;-139.48;100.00;61774.03;4976002;28;20062;-68
2021/11/10 09:06:44;;;;;;;12.45;8.38;;;;;;;-139.48;100.00;61774.03;4974840;28;20429;-68
2021/11/10 09:09:30;;;;;;;11.20;8.40;;;;;;;-139.48;100.00;61774.03;4974281;28;20066;-67
2021/11/10 09:12:13;;;;;;;11.50;7.82;;;;;;;-139.48;100.00;61774.03;4974523;28;20448;-68
2021/11/10 09:14:58;;;;;;;15.80;8.63;;;;;;;-139.48;100.00;61774.03;4975538;28;20158;-68
2021/11/10 09:17:42;;;;;;;21.45;16.80;;;;;;;-139.48;100.00;61774.03;4974030;28;20503;-68
2021/11/10 09:20:28;;;;;;;10.77;8.13;;;;;;;-139.48;100.00;61774.03;4974282;28;20101;-68
2021/11/10 09:23:14;;;;;;;13.75;8.40;;;;;;;-139.48;100.00;61774.03;4960546;28;20050;-67
2021/11/10 09:25:58;;;;;;;11.65;8.30;;;;;;;-139.48;100.00;61774.03;4960449;28;20460;-68
2021/11/10 09:28:42;;;;;;;20.98;14.75;;;;;;;-139.48;100.00;61774.03;4973860;28;20142;-68
2021/11/10 09:31:26;;;;;;;14.95;10.50;;;;;;;-139.48;100.00;61774.03;4974175;28;20058;-68
2021/11/10 09:34:12;;;;;;;12.73;9.38;;;;;;;-139.48;100.00;61774.03;4974326;28;20560;-68
2021/11/10 09:36:56;;;;;;;14.40;10.63;;;;;;;-139.48;100.00;61774.03;4974024;28;20193;-68
2021/11/10 09:39:40;;;;;;;15.48;11.82;;;;;;;-139.48;100.00;61774.03;4973899;28;20480;-67
2021/11/10 09:42:24;;;;;;;14.07;12.38;;;;;;;-139.48;100.00;61774.03;4973903;28;20085;-67
2021/11/10 09:45:10;;;;;;;20.30;10.82;;;;;;;-139.48;100.00;61774.03;4974017;28;20086;-68
2021/11/10 09:47:55;;;;;;;14.55;10.23;;;;;;;-139.48;100.00;61774.03;4973723;28;20089;-68
2021/11/10 09:50:44;;;;;;;16.55;10.77;;;;;;;-139.48;100.00;61774.03;4973764;28;20108;-70
2021/11/10 09:53:28;;;;;;;14.93;10.30;;;;;;;-139.48;100.00;61774.03;4973520;28;20582;-70
2021/11/10 09:56:12;;;;;;;17.65;11.30;;;;;;;-139.48;100.00;61774.03;4973590;28;20109;-70
2021/11/10 09:58:57;;;;;;;14.20;10.50;;;;;;;-139.48;100.00;61774.03;4973501;28;20412;-68
2021/11/10 10:01:41;;;;;;;16.60;10.65;;;;;;;-139.48;100.00;61774.03;4974742;28;20104;-69
2021/11/10 10:04:25;;;;;;;28.88;21.17;;;;;;;-139.48;100.00;61774.03;4959900;28;20105;-68
2021/11/10 10:07:10;;;;;;;24.10;15.85;;;;;;;-139.48;100.00;61774.03;4973560;28;20148;-68
2021/11/10 10:09:54;;;;;;;15.38;11.88;;;;;;;-139.48;100.00;61774.03;4959067;28;20054;-68
2021/11/10 10:12:40;;;;;;;22.40;15.43;;;;;;;-139.48;100.00;61774.03;4973139;28;20105;-68
2021/11/10 10:15:26;;;;;;;16.00;11.20;;;;;;;-139.48;100.00;61774.03;4973299;28;20058;-68
2021/11/10 10:18:16;;;;;;;13.40;10.85;;;;;;;-139.48;100.00;61774.03;4972876;28;20488;-68
2021/11/10 10:21:09;;;;;;;12.73;9.65;;;;;;;-139.48;100.00;61774.03;4974042;28;20505;-68
2021/11/10 10:23:53;;;;;;;16.30;11.18;;;;;;;-139.48;100.00;61774.03;4959522;28;20141;-68
2021/11/10 10:26:37;;;;;;;15.52;11.55;;;;;;;-139.48;100.00;61774.03;4974102;28;20050;-68
2021/11/10 10:29:20;;;;;;;16.10;11.82;;;;;;;-139.48;100.00;61774.03;4973263;28;20053;-68
2021/11/10 10:32:05;;;;;;;21.33;12.52;;;;;;;-139.48;100.00;61774.03;4959642;28;20134;-68
2021/11/10 10:34:49;;;;;;;17.02;11.27;;;;;;;-139.48;100.00;61774.03;4959258;28;20145;-68
2021/11/10 10:37:33;;;;;;;15.43;10.45;;;;;;;-139.48;100.00;61774.03;4959325;28;20046;-68
2021/11/10 10:40:19;;;;;;;16.08;10.60;;;;;;;-139.48;100.00;61774.03;4973372;28;20596;-68
2021/11/10 10:43:04;;;;;;;15.63;12.43;;;;;;;-139.48;100.00;61774.03;4972860;28;20049;-68
2021/11/10 10:45:54;;;;;;;15.15;11.55;;;;;;;-139.48;100.00;61774.03;4972968;28;20046;-68
2021/11/10 10:48:39;;;;;;;15.93;11.88;;;;;;;-139.48;100.00;61774.03;4972649;28;20135;-68
2021/11/10 10:51:22;;;;;;;19.08;12.57;;;;;;;-139.48;100.00;61774.03;4974374;28;20069;-68
2021/11/10 10:54:09;;;;;;;15.00;12.38;;;;;;;-139.48;100.00;61774.03;4973009;28;20066;-68
2021/11/10 10:56:55;;;;;;;16.95;12.55;;;;;;;-139.48;100.00;61774.03;4972900;28;20104;-68
2021/11/10 10:59:39;;;;;;;16.02;12.18;;;;;;;-139.48;100.00;61774.03;4972735;28;20113;-68
2021/11/10 11:02:27;;;;;;;17.73;12.15;;;;;;;-139.48;100.00;61774.03;4959361;28;20049;-69
2021/11/10 11:05:40;;;;;;;19.67;12.10;;;;;;;-139.48;100.00;61774.03;4958947;28;20109;-68
2021/11/10 11:08:33;;;;;;;19.77;12.57;;;;;;;-139.48;100.00;61774.03;4972597;28;20041;-68
2021/11/10 11:11:23;;;;;;;18.42;12.13;;;;;;;-139.48;100.00;61774.03;4972525;28;20073;-68
2021/11/10 11:14:15;;;;;;;20.83;14.57;;;;;;;-139.48;100.00;61774.03;4972973;28;20058;-68
2021/11/10 11:17:05;;;;;;;20.98;15.57;;;;;;;-139.48;100.00;61774.03;4972793;28;20117;-68
2021/11/10 11:20:10;;;;;;;22.88;14.85;;;;;;;-139.48;100.00;61774.03;4972548;28;20470;-68
2021/11/10 11:22:55;;;;;;;;;;;;;;;-139.48;100.00;61774.03;4976575;28;20067;-68
2021/11/10 11:25:39;;;;;;;18.77;12.65;;;;;;;-139.48;100.00;61774.03;4976430;28;19920;-68
2021/11/10 11:28:25;;;;;;;19.20;12.15;;;;;;;-139.48;100.00;61774.03;4976294;28;20054;-68
2021/11/10 11:31:10;;;;;;;18.75;12.70;;;;;;;-139.48;100.00;61774.03;4977435;28;20112;-68
2021/11/10 11:33:57;;;;;;;17.90;11.43;;;;;;;-139.48;100.00;61774.03;4977081;28;20050;-68
2021/11/10 11:36:55;;;;;;;18.63;13.25;;;;;;;-139.48;100.00;61774.03;4976925;28;20535;-68
2021/11/10 11:39:39;;;;;;;16.80;12.38;;;;;;;-139.48;100.00;61774.03;4975933;28;20089;-68
2021/11/10 11:42:26;;;;;;;18.58;12.23;;;;;;;-139.48;100.00;61774.03;4962754;28;20174;-69
2021/11/10 11:45:11;;;;;;;17.90;12.80;;;;;;;-139.48;100.00;61774.03;4976117;28;20511;-68
2021/11/10 11:48:00;;;;;;;19.77;12.68;;;;;;;-139.48;100.00;61774.03;4975955;28;20049;-68
2021/11/10 11:50:46;;;;;;;18.02;13.13;;;;;;;-139.48;100.00;61774.03;4976043;28;20053;-69
2021/11/10 11:53:35;;;;;;;17.27;11.80;;;;;;;-139.48;100.00;61774.03;4975888;28;20097;-68
2021/11/10 11:56:19;;;;;;;18.65;14.23;;;;;;;-139.48;100.00;61774.03;4962444;28;20046;-68
2021/11/10 11:59:04;;;;;;;14.15;10.15;;;;;;;-139.48;100.00;61774.03;4975548;28;20575;-68
2021/11/10 12:01:48;;;;;;;17.98;12.50;;;;;;;-139.48;100.00;61774.03;4975545;28;20417;-68
2021/11/10 12:04:32;;;;;;;16.83;10.85;;;;;;;-139.48;100.00;61774.03;4975786;28;20419;-68
2021/11/10 12:07:45;;;;;;;16.92;10.75;;;;;;;-139.48;100.00;61774.03;4976705;28;20053;-68
2021/11/10 12:10:33;;;;;;;19.20;12.20;;;;;;;-139.48;100.00;61774.03;4976647;28;20101;-68
2021/11/10 12:13:21;;;;;;;18.92;13.07;;;;;;;-139.48;100.00;61774.03;4975575;28;20243;-68
2021/11/10 12:16:14;;;;;;;36.50;26.83;;;;;;;-139.48;100.00;61774.03;4975469;28;20074;-68
2021/11/10 12:19:00;;;;;;;18.67;11.50;;;;;;;-139.48;100.00;61774.03;4961839;28;20073;-68
2021/11/10 12:21:52;;;;;;;14.90;10.70;;;;;;;-139.48;100.00;61774.03;4976305;28;20118;-68
2021/11/10 12:24:53;;;;;;;14.93;10.48;;;;;;;-139.48;100.00;61774.03;4976341;28;20468;-68
2021/11/10 12:27:37;;;;;;;15.25;12.02;;;;;;;-139.48;100.00;61774.03;4974984;28;20185;-68